Budleigh Salterton, United Kingdom
Current Conditions -  °F | °C
As of 9:50 AM on Tuesday 21 Oct 2014 (Local Time) from EGTE Reporting Station
Rain Showers Rain Showers  
Wind Chill: 12°   Ceiling: Unl
Heat Index: 12°   Visibility: 6mi
Dew Point:   Wind: 22mph
Humidity: 67%   Direction: 290°WNW
Pressure: 29.8"   Gusts: 38mph
Location:  50.63°N, 3.32°W
Report Text: EGTE 210850Z 29019G33KT 9999 VCSH FEW025 12/06 Q1009
Loading
Personal Weather Stations






























Interactive Weather Map
Tropical Storm Tracking
New forecast layout! Learn more

10-Day Weather Forecast

Advertisements
Track Severe Weather on mobile